Time;durP1;ratioP1;P1;durP2;ratioP2;P2;SDS_P1;SDS_P2;PMS_P1;PMS_P2;Temp;Humidity;BMP_temperature;BMP_pressure;BME280_temperature;BME280_humidity;BME280_pressure;Samples;Min_cycle;Max_cycle;Signal;HPM_P1;HPM_P2
2023/11/18 00:06:46;;;;;;;;;;;5.40;99.90;;;;;;21143335;28;19966;-87
2023/11/18 00:16:47;;;;;;;;;;;5.50;99.90;;;;;;21187008;27;20290;-85
2023/11/18 00:26:48;;;;;;;;;;;5.30;99.90;;;;;;21195742;27;20357;-84
2023/11/18 00:36:52;;;;;;;;;;;5.20;99.90;;;;;;21154460;28;20006;-82
2023/11/18 00:46:52;;;;;;;;;;;4.70;99.90;;;;;;21169666;28;20336;-83
2023/11/18 00:56:53;;;;;;;;;;;4.50;99.90;;;;;;21150402;28;19953;-83
2023/11/18 01:06:54;;;;;;;;;;;4.10;99.90;;;;;;21134077;28;19920;-83
2023/11/18 01:16:54;;;;;;;;;;;3.80;99.90;;;;;;21151294;28;20371;-83
2023/11/18 01:26:55;;;;;;;;;;;3.70;99.90;;;;;;21132244;28;19989;-85
2023/11/18 01:36:57;;;;;;;;;;;3.10;99.90;;;;;;21133282;28;20271;-86
2023/11/18 01:46:58;;;;;;;;;;;3.40;99.90;;;;;;21160750;27;20336;-84
2023/11/18 01:57:02;;;;;;;;;;;3.50;99.90;;;;;;21170355;27;19918;-82
2023/11/18 02:07:08;;;;;;;;;;;3.40;99.90;;;;;;21172973;27;19915;-83
2023/11/18 02:17:10;;;;;;;;;;;3.50;99.90;;;;;;21156942;27;20003;-82
2023/11/18 02:27:14;;;;;;;;;;;3.20;99.90;;;;;;21143651;27;20380;-82
2023/11/18 02:37:15;;;;;;;;;;;3.30;99.90;;;;;;21144713;28;19942;-82
2023/11/18 02:47:16;;;;;;;;;;;3.30;99.90;;;;;;21189461;28;19916;-82
2023/11/18 02:57:16;;;;;;;;;;;3.10;99.90;;;;;;21168793;28;19918;-83
2023/11/18 03:07:17;;;;;;;;;;;3.10;99.90;;;;;;21188562;28;20022;-83
2023/11/18 03:17:18;;;;;;;;;;;2.90;99.90;;;;;;21152422;27;19912;-83
2023/11/18 03:27:18;;;;;;;;;;;2.30;99.90;;;;;;21199249;27;19920;-83
2023/11/18 03:37:23;;;;;;;;;;;2.20;99.90;;;;;;21186749;28;20335;-82
2023/11/18 03:47:23;;;;;;;;;;;2.10;99.90;;;;;;21178464;27;19919;-83
2023/11/18 03:57:24;;;;;;;;;;;2.20;99.90;;;;;;21177501;27;19919;-82
2023/11/18 04:07:25;;;;;;;;;;;2.50;99.90;;;;;;21172303;28;20354;-82
2023/11/18 04:17:28;;;;;;;;;;;2.30;99.90;;;;;;21084727;28;19962;-84
2023/11/18 04:27:28;;;;;;;;;;;2.10;99.90;;;;;;21147067;28;19977;-83
2023/11/18 04:37:29;;;;;;;;;;;2.30;99.90;;;;;;21159770;27;19915;-83
2023/11/18 04:47:30;;;;;;;;;;;2.40;99.90;;;;;;21170956;27;19959;-83
2023/11/18 04:57:30;;;;;;;;;;;2.30;99.90;;;;;;21175205;27;19922;-82
2023/11/18 05:07:31;;;;;;;;;;;2.40;99.90;;;;;;21242024;27;20378;-82
2023/11/18 05:17:32;;;;;;;;;;;2.70;99.90;;;;;;21259187;27;19911;-82
2023/11/18 05:27:32;;;;;;;;;;;2.70;99.90;;;;;;21239566;27;19935;-82
2023/11/18 05:37:35;;;;;;;;;;;2.90;99.90;;;;;;21137587;27;20002;-84
2023/11/18 05:47:36;;;;;;;;;;;2.90;99.90;;;;;;21200479;27;19961;-82
2023/11/18 05:57:37;;;;;;;;;;;2.80;99.90;;;;;;21184722;27;19912;-82
2023/11/18 06:07:39;;;;;;;;;;;3.00;99.90;;;;;;21235439;27;20370;-82
2023/11/18 06:17:43;;;;;;;;;;;3.00;99.90;;;;;;21105139;27;19916;-82
2023/11/18 06:27:47;;;;;;;;;;;3.00;99.90;;;;;;21221110;27;19915;-83
2023/11/18 06:37:48;;;;;;;;;;;2.90;99.90;;;;;;21172977;27;19922;-83
2023/11/18 06:47:49;;;;;;;;;;;2.70;99.90;;;;;;21137977;28;19916;-83
2023/11/18 06:57:50;;;;;;;;;;;2.90;99.90;;;;;;21170070;28;19919;-81
2023/11/18 07:07:51;;;;;;;;;;;2.90;99.90;;;;;;21173412;27;20427;-83
2023/11/18 07:17:51;;;;;;;;;;;2.90;99.90;;;;;;21161195;28;20279;-82
2023/11/18 07:27:52;;;;;;;;;;;3.10;99.90;;;;;;21185247;27;20405;-82
2023/11/18 07:37:53;;;;;;;;;;;3.20;99.90;;;;;;21111911;28;19965;-82
2023/11/18 07:47:54;;;;;;;;;;;3.30;99.90;;;;;;21181063;27;20378;-82
2023/11/18 07:57:54;;;;;;;;;;;3.50;99.90;;;;;;21162429;28;19911;-81
2023/11/18 08:07:55;;;;;;;;;;;3.50;99.90;;;;;;21110026;28;19916;-82
2023/11/18 08:17:56;;;;;;;;;;;3.50;99.90;;;;;;21166991;27;19919;-82
2023/11/18 08:27:56;;;;;;;;;;;3.50;99.90;;;;;;21157872;27;19925;-85
2023/11/18 08:37:59;;;;;;;;;;;3.70;99.90;;;;;;21230357;27;19964;-83
2023/11/18 08:48:07;;;;;;;;;;;3.90;99.90;;;;;;21162851;28;19972;-84
2023/11/18 08:58:27;;;;;;;;;;;4.00;99.90;;;;;;21217136;27;20439;-82
2023/11/18 09:08:29;;;;;;;;;;;4.20;99.90;;;;;;21225724;27;19919;-83
2023/11/18 09:18:32;;;;;;;;;;;4.30;99.90;;;;;;21220450;27;19943;-82
2023/11/18 09:28:34;;;;;;;;;;;4.50;99.90;;;;;;21217111;27;19922;-82
2023/11/18 09:38:35;;;;;;;;;;;4.50;99.90;;;;;;21216450;27;19915;-84
2023/11/18 09:48:40;;;;;;;;;;;4.30;99.90;;;;;;21215561;27;19968;-81
2023/11/18 09:58:48;;;;;;;;;;;4.50;99.90;;;;;;21215911;27;19917;-83
2023/11/18 10:08:53;;;;;;;;;;;4.80;99.90;;;;;;21214146;27;20005;-83
2023/11/18 10:19:00;;;;;;;;;;;4.70;99.90;;;;;;21214316;27;19935;-84
2023/11/18 10:29:02;;;;;;;;;;;5.00;99.90;;;;;;21214967;27;20382;-84
2023/11/18 10:39:13;;;;;;;;;;;5.40;99.90;;;;;;21194076;27;19923;-84
2023/11/18 10:49:15;;;;;;;;;;;5.50;99.90;;;;;;21161182;28;20052;-85
2023/11/18 10:59:16;;;;;;;;;;;5.70;99.90;;;;;;21196328;28;19916;-83
2023/11/18 11:09:17;;;;;;;;;;;5.70;99.90;;;;;;21179547;28;19912;-84
2023/11/18 11:19:34;;;;;;;;;;;5.70;99.90;;;;;;21204712;28;19918;-84
2023/11/18 11:29:43;;;;;;;;;;;5.70;99.90;;;;;;21199575;27;19918;-83
2023/11/18 11:39:47;;;;;;;;;;;5.70;99.90;;;;;;21227583;27;19960;-84
2023/11/18 11:49:52;;;;;;;;;;;5.80;99.90;;;;;;21196431;27;20299;-84
2023/11/18 11:59:55;;;;;;;;;;;5.90;99.90;;;;;;21208998;27;19915;-84
2023/11/18 12:09:57;;;;;;;;;;;6.10;99.90;;;;;;21210959;27;20344;-84
2023/11/18 12:20:06;;;;;;;;;;;6.20;99.90;;;;;;21191974;27;20011;-85
2023/11/18 12:30:29;;;;;;;;;;;6.30;99.90;;;;;;21178266;27;19912;-84
2023/11/18 12:40:46;;;;;;;;;;;6.20;99.90;;;;;;21207258;27;19962;-84
2023/11/18 12:50:47;;;;;;;;;;;6.10;99.90;;;;;;21206508;27;19956;-82
2023/11/18 13:00:49;;;;;;;;;;;6.10;99.90;;;;;;21191700;27;20006;-85
2023/11/18 13:10:50;;;;;;;;;;;6.10;99.90;;;;;;21174911;27;19919;-88
2023/11/18 13:20:57;;;;;;;;;;;6.00;99.90;;;;;;21180376;27;20001;-85
2023/11/18 13:30:58;;;;;;;;;;;6.00;99.90;;;;;;21216226;27;20435;-85
2023/11/18 13:41:03;;;;;;;;;;;6.00;99.90;;;;;;21173212;27;20378;-85
2023/11/18 13:51:08;;;;;;;;;;;6.00;99.90;;;;;;21222637;27;20347;-85
2023/11/18 14:01:10;;;;;;;;;;;6.10;99.90;;;;;;21142498;27;19916;-85
2023/11/18 14:11:14;;;;;;;;;;;6.00;99.90;;;;;;21180171;27;20470;-85
2023/11/18 14:21:15;;;;;;;;;;;6.10;99.90;;;;;;21189869;27;19990;-85
2023/11/18 14:31:15;;;;;;;;;;;6.00;99.90;;;;;;21223832;27;19962;-84
2023/11/18 14:41:16;;;;;;;;;;;6.00;99.90;;;;;;21205990;27;19916;-83
2023/11/18 14:51:17;;;;;;;;;;;6.00;99.90;;;;;;21210002;28;20370;-83
2023/11/18 15:01:19;;;;;;;;;;;6.00;99.90;;;;;;21218311;28;19915;-84
2023/11/18 15:11:23;;;;;;;;;;;6.00;99.90;;;;;;21218922;27;20286;-85
2023/11/18 15:21:24;;;;;;;;;;;6.00;99.90;;;;;;21247830;27;20435;-83
2023/11/18 15:31:24;;;;;;;;;;;6.00;99.90;;;;;;21244818;27;20437;-84
2023/11/18 15:41:25;;;;;;;;;;;6.20;99.90;;;;;;21263050;27;19916;-83
2023/11/18 15:51:27;;;;;;;;;;;6.00;99.90;;;;;;21262385;27;20274;-82
2023/11/18 16:01:28;;;;;;;;;;;6.00;99.90;;;;;;21242616;27;19984;-83
2023/11/18 16:11:29;;;;;;;;;;;5.90;99.90;;;;;;21242993;27;19912;-83
2023/11/18 16:21:31;;;;;;;;;;;5.90;99.90;;;;;;21244918;27;19915;-83
2023/11/18 16:31:31;;;;;;;;;;;5.90;99.90;;;;;;21226849;27;19950;-83
2023/11/18 16:41:32;;;;;;;;;;;5.90;99.90;;;;;;21223890;27;19922;-82
2023/11/18 16:51:33;;;;;;;;;;;6.00;99.90;;;;;;21240739;27;19912;-84
2023/11/18 17:01:34;;;;;;;;;;;5.90;99.90;;;;;;21241018;27;19969;-83
2023/11/18 17:11:35;;;;;;;;;;;5.90;99.90;;;;;;21244452;27;19911;-85
2023/11/18 17:21:37;;;;;;;;;;;6.00;99.90;;;;;;21244867;27;19961;-85
2023/11/18 17:31:38;;;;;;;;;;;5.90;99.90;;;;;;21232384;27;19985;-86
2023/11/18 17:41:39;;;;;;;;;;;5.90;99.90;;;;;;21184639;27;19915;-85
2023/11/18 17:51:39;;;;;;;;;;;5.90;99.90;;;;;;21241719;27;19912;-85
2023/11/18 18:01:40;;;;;;;;;;;5.90;99.90;;;;;;21193477;27;20370;-87
2023/11/18 18:11:41;;;;;;;;;;;5.90;99.90;;;;;;21202156;27;19915;-85
2023/11/18 18:21:42;;;;;;;;;;;6.00;99.90;;;;;;21191750;27;19920;-86
2023/11/18 18:31:42;;;;;;;;;;;6.00;99.90;;;;;;21164253;27;19951;-85
2023/11/18 18:41:48;;;;;;;;;;;6.00;99.90;;;;;;21157122;27;20000;-83
2023/11/18 18:51:51;;;;;;;;;;;6.70;99.90;;;;;;21237120;27;20290;-83
2023/11/18 19:01:51;;;;;;;;;;;7.80;99.90;;;;;;21247960;27;19963;-83
2023/11/18 19:11:52;;;;;;;;;;;7.80;99.90;;;;;;21238843;27;19957;-84
2023/11/18 19:21:53;;;;;;;;;;;7.80;99.90;;;;;;21218762;27;20381;-83
2023/11/18 19:31:54;;;;;;;;;;;7.10;99.90;;;;;;21174555;28;19933;-82
2023/11/18 19:41:54;;;;;;;;;;;6.80;99.90;;;;;;21173601;28;19923;-84
2023/11/18 19:51:55;;;;;;;;;;;6.60;99.90;;;;;;21156774;28;20290;-84
2023/11/18 20:01:56;;;;;;;;;;;6.60;99.90;;;;;;21162959;28;19915;-83
2023/11/18 20:11:57;;;;;;;;;;;6.50;99.90;;;;;;21143695;28;20007;-83
2023/11/18 20:21:58;;;;;;;;;;;6.50;99.90;;;;;;21145213;28;19923;-83
2023/11/18 20:31:59;;;;;;;;;;;6.50;99.90;;;;;;21143209;28;19912;-83
2023/11/18 20:41:59;;;;;;;;;;;6.50;99.90;;;;;;21157983;28;19920;-83
2023/11/18 20:52:00;;;;;;;;;;;6.50;99.90;;;;;;21141012;28;20014;-84
2023/11/18 21:02:01;;;;;;;;;;;6.50;99.90;;;;;;21154883;28;19967;-84
2023/11/18 21:12:02;;;;;;;;;;;6.50;99.90;;;;;;21138420;28;20304;-84
2023/11/18 21:22:02;;;;;;;;;;;6.50;99.90;;;;;;21140396;28;19920;-84
2023/11/18 21:32:04;;;;;;;;;;;6.40;99.90;;;;;;21138563;28;19922;-84
2023/11/18 21:42:07;;;;;;;;;;;6.20;99.90;;;;;;21134567;28;20362;-83
2023/11/18 21:52:11;;;;;;;;;;;6.30;99.90;;;;;;21151825;28;19916;-83
2023/11/18 22:02:11;;;;;;;;;;;6.30;99.90;;;;;;21134822;28;20319;-86
2023/11/18 22:12:12;;;;;;;;;;;6.30;99.90;;;;;;21133480;28;19912;-85
2023/11/18 22:22:13;;;;;;;;;;;6.30;99.90;;;;;;21131112;28;19923;-85
2023/11/18 22:32:13;;;;;;;;;;;6.30;99.90;;;;;;21130325;28;19919;-85
2023/11/18 22:42:15;;;;;;;;;;;6.40;99.90;;;;;;21131604;28;20413;-85
2023/11/18 22:52:16;;;;;;;;;;;6.40;99.90;;;;;;21132915;28;19916;-85
2023/11/18 23:02:19;;;;;;;;;;;6.40;99.90;;;;;;21129100;28;20398;-84
2023/11/18 23:12:20;;;;;;;;;;;6.30;99.90;;;;;;21147567;28;20318;-84
2023/11/18 23:22:21;;;;;;;;;;;6.40;99.90;;;;;;21130139;28;19915;-84
2023/11/18 23:32:22;;;;;;;;;;;6.30;99.90;;;;;;21152201;28;20425;-85
2023/11/18 23:42:22;;;;;;;;;;;6.40;99.90;;;;;;21163592;28;19916;-84
2023/11/18 23:52:23;;;;;;;;;;;6.40;99.90;;;;;;21145830;28;20322;-85
